createdAt,value
2022-10-10T00:01:43.505Z,100.00
2022-10-10T00:04:12.358Z,100.00
2022-10-10T00:06:40.964Z,100.00
2022-10-10T00:09:09.880Z,100.00
2022-10-10T00:11:38.396Z,100.00
2022-10-10T00:14:08.836Z,100.00
2022-10-10T00:16:37.544Z,100.00
2022-10-10T00:19:06.325Z,100.00
2022-10-10T00:21:35.045Z,100.00
2022-10-10T00:24:03.780Z,100.00
2022-10-10T00:26:32.868Z,100.00
2022-10-10T00:29:01.418Z,100.00
2022-10-10T00:31:31.511Z,100.00
2022-10-10T00:33:59.991Z,100.00
2022-10-10T00:36:28.531Z,100.00
2022-10-10T00:38:57.388Z,100.00
2022-10-10T00:41:27.067Z,100.00
2022-10-10T00:44:07.937Z,100.00
2022-10-10T00:46:38.386Z,100.00
2022-10-10T00:49:10.806Z,100.00
2022-10-10T00:51:40.369Z,100.00
2022-10-10T00:54:11.373Z,100.00
2022-10-10T00:56:45.011Z,100.00
2022-10-10T00:59:13.863Z,100.00
2022-10-10T01:01:44.388Z,100.00
2022-10-10T01:04:34.728Z,100.00
2022-10-10T01:07:07.256Z,100.00
2022-10-10T01:09:38.069Z,100.00
2022-10-10T01:12:19.219Z,100.00
2022-10-10T01:14:52.819Z,100.00
2022-10-10T01:17:31.200Z,100.00
2022-10-10T01:20:32.965Z,100.00
2022-10-10T01:23:25.376Z,100.00
2022-10-10T01:26:05.813Z,100.00
2022-10-10T01:28:44.815Z,100.00
2022-10-10T01:31:17.014Z,100.00
2022-10-10T01:33:56.274Z,100.00
2022-10-10T01:36:32.730Z,100.00
2022-10-10T01:39:07.729Z,100.00
2022-10-10T01:41:42.626Z,100.00
2022-10-10T01:44:12.816Z,100.00
2022-10-10T01:46:43.490Z,100.00
2022-10-10T01:49:12.412Z,100.00
2022-10-10T01:51:59.033Z,100.00
2022-10-10T01:54:38.570Z,100.00
2022-10-10T01:57:20.654Z,100.00
2022-10-10T01:59:54.931Z,100.00
2022-10-10T02:02:31.683Z,100.00
2022-10-10T02:05:05.900Z,100.00
2022-10-10T02:07:41.250Z,100.00
2022-10-10T02:10:11.596Z,100.00
2022-10-10T02:12:41.755Z,100.00
2022-10-10T02:15:15.648Z,100.00
2022-10-10T02:17:48.994Z,100.00
2022-10-10T02:20:22.106Z,100.00
2022-10-10T02:22:52.160Z,100.00
2022-10-10T02:25:24.877Z,100.00
2022-10-10T02:28:05.222Z,100.00
2022-10-10T02:30:37.955Z,100.00
2022-10-10T02:33:08.778Z,100.00
2022-10-10T02:35:41.763Z,100.00
2022-10-10T02:38:13.510Z,100.00
2022-10-10T02:40:43.141Z,100.00
2022-10-10T02:43:13.419Z,100.00
2022-10-10T02:45:44.079Z,100.00
2022-10-10T02:48:12.685Z,100.00
2022-10-10T02:50:41.286Z,100.00
2022-10-10T02:53:09.767Z,100.00
2022-10-10T02:55:38.751Z,100.00
2022-10-10T02:58:07.394Z,100.00
2022-10-10T03:00:36.077Z,100.00
2022-10-10T03:03:06.166Z,100.00
2022-10-10T03:05:34.629Z,100.00
2022-10-10T03:08:05.857Z,100.00
2022-10-10T03:10:36.597Z,100.00
2022-10-10T03:13:05.464Z,100.00
2022-10-10T03:15:33.993Z,100.00
2022-10-10T03:18:02.917Z,100.00
2022-10-10T03:20:32.787Z,100.00
2022-10-10T03:23:01.527Z,100.00
2022-10-10T03:25:30.193Z,100.00
2022-10-10T03:27:58.711Z,100.00
2022-10-10T03:30:27.329Z,100.00
2022-10-10T03:32:55.810Z,100.00
2022-10-10T03:35:24.707Z,100.00
2022-10-10T03:37:54.863Z,100.00
2022-10-10T03:40:23.754Z,100.00
2022-10-10T03:42:53.148Z,100.00
2022-10-10T03:45:23.029Z,100.00
2022-10-10T03:47:51.664Z,100.00
2022-10-10T03:50:20.397Z,100.00
2022-10-10T03:52:49.032Z,100.00
2022-10-10T03:55:19.539Z,100.00
2022-10-10T03:57:48.308Z,100.00
2022-10-10T04:00:17.139Z,100.00
2022-10-10T04:02:45.803Z,100.00
2022-10-10T04:05:14.628Z,100.00
2022-10-10T04:07:43.212Z,100.00
2022-10-10T04:10:11.898Z,100.00
2022-10-10T04:12:42.136Z,100.00
2022-10-10T04:15:12.056Z,100.00
2022-10-10T04:17:40.663Z,100.00
2022-10-10T04:20:09.884Z,100.00
2022-10-10T04:22:38.535Z,100.00
2022-10-10T04:25:07.554Z,100.00
2022-10-10T04:27:36.261Z,100.00
2022-10-10T04:30:07.330Z,100.00
2022-10-10T04:32:36.215Z,100.00
2022-10-10T04:35:05.543Z,100.00
2022-10-10T04:37:35.439Z,100.00
2022-10-10T04:40:04.148Z,100.00
2022-10-10T04:42:32.699Z,100.00
2022-10-10T04:45:01.236Z,100.00
2022-10-10T04:47:32.084Z,100.00
2022-10-10T04:50:00.502Z,100.00
2022-10-10T04:52:29.293Z,100.00
2022-10-10T04:54:57.820Z,100.00
2022-10-10T04:57:26.765Z,100.00
2022-10-10T04:59:55.728Z,100.00
2022-10-10T05:02:24.727Z,100.00
2022-10-10T05:04:55.482Z,100.00
2022-10-10T05:07:24.136Z,100.00
2022-10-10T05:09:52.766Z,100.00
2022-10-10T05:12:21.413Z,100.00
2022-10-10T05:14:51.233Z,100.00
2022-10-10T05:17:19.862Z,100.00
2022-10-10T05:19:49.456Z,100.00
2022-10-10T05:22:19.516Z,100.00
2022-10-10T05:24:48.193Z,100.00
2022-10-10T05:27:16.694Z,100.00
2022-10-10T05:29:46.048Z,100.00
2022-10-10T05:32:14.818Z,100.00
2022-10-10T05:34:43.601Z,100.00
2022-10-10T05:37:12.694Z,100.00
2022-10-10T05:39:42.669Z,100.00
2022-10-10T05:42:11.468Z,100.00
2022-10-10T05:44:40.450Z,100.00
2022-10-10T05:47:09.628Z,100.00
2022-10-10T05:49:39.083Z,100.00
2022-10-10T05:52:07.862Z,100.00
2022-10-10T05:54:36.601Z,100.00
2022-10-10T05:57:06.840Z,100.00
2022-10-10T05:59:35.474Z,100.00
2022-10-10T06:02:04.073Z,100.00
2022-10-10T06:04:32.745Z,100.00
2022-10-10T06:07:01.345Z,100.00
2022-10-10T06:09:30.058Z,100.00
2022-10-10T06:11:58.859Z,100.00
2022-10-10T06:14:29.489Z,100.00
2022-10-10T06:16:58.031Z,100.00
2022-10-10T06:19:26.586Z,100.00
2022-10-10T06:21:55.385Z,100.00
2022-10-10T06:24:24.112Z,100.00
2022-10-10T06:26:52.749Z,100.00
2022-10-10T06:29:21.280Z,100.00
2022-10-10T06:31:51.415Z,100.00
2022-10-10T06:34:20.115Z,100.00
2022-10-10T06:36:50.881Z,100.00
2022-10-10T06:39:19.519Z,100.00
2022-10-10T06:41:50.278Z,100.00
2022-10-10T06:44:20.597Z,100.00
2022-10-10T06:46:50.469Z,100.00
2022-10-10T06:49:19.090Z,100.00
2022-10-10T06:51:47.854Z,100.00
2022-10-10T06:54:17.281Z,100.00
2022-10-10T06:56:46.057Z,100.00
2022-10-10T06:59:14.692Z,100.00
2022-10-10T07:01:43.579Z,100.00
2022-10-10T07:04:14.398Z,100.00
2022-10-10T07:06:43.074Z,100.00
2022-10-10T07:09:11.645Z,100.00
2022-10-10T07:11:45.454Z,100.00
2022-10-10T07:14:15.318Z,100.00
2022-10-10T07:16:43.933Z,100.00
2022-10-10T07:19:14.050Z,100.00
2022-10-10T07:21:44.665Z,100.00
2022-10-10T07:24:13.288Z,100.00
2022-10-10T07:26:41.902Z,100.00
2022-10-10T07:29:10.489Z,100.00
2022-10-10T07:31:39.105Z,100.00
2022-10-10T07:34:08.001Z,100.00
2022-10-10T07:36:38.382Z,100.00
2022-10-10T07:39:07.126Z,100.00
2022-10-10T07:41:35.887Z,100.00
2022-10-10T07:44:04.979Z,100.00
2022-10-10T07:46:33.561Z,100.00
2022-10-10T07:49:02.295Z,100.00
2022-10-10T07:51:31.072Z,100.00
2022-10-10T07:54:01.698Z,100.00
2022-10-10T07:56:30.447Z,100.00
2022-10-10T07:59:00.310Z,100.00
2022-10-10T08:01:28.982Z,100.00
2022-10-10T08:03:58.641Z,100.00
2022-10-10T08:06:27.375Z,100.00
2022-10-10T08:08:55.967Z,100.00
2022-10-10T08:11:25.991Z,91.55
2022-10-10T08:13:54.834Z,81.71
2022-10-10T08:16:24.472Z,76.25
2022-10-10T08:18:54.154Z,75.76
2022-10-10T08:21:23.011Z,79.65
2022-10-10T08:23:51.938Z,84.09
2022-10-10T08:26:21.187Z,87.21
2022-10-10T08:28:51.336Z,88.47
2022-10-10T08:31:22.904Z,87.89
2022-10-10T08:33:53.496Z,88.43
2022-10-10T08:36:24.981Z,88.31
2022-10-10T08:38:59.657Z,86.47
2022-10-10T08:41:41.560Z,82.26
2022-10-10T08:44:20.722Z,74.02
2022-10-10T08:46:53.947Z,67.45
2022-10-10T08:49:28.428Z,60.78
2022-10-10T08:52:03.097Z,57.12
2022-10-10T08:54:34.371Z,58.28
2022-10-10T08:57:06.830Z,64.07
2022-10-10T08:59:41.257Z,69.56
2022-10-10T09:02:53.045Z,66.51
2022-10-10T09:05:26.378Z,63.82
2022-10-10T09:08:26.760Z,67.17
2022-10-10T09:10:59.586Z,70.43
2022-10-10T09:13:36.163Z,70.47
2022-10-10T09:16:15.932Z,72.72
2022-10-10T09:18:55.206Z,70.67
2022-10-10T09:21:27.919Z,73.05
2022-10-10T09:24:04.523Z,70.35
2022-10-10T09:26:40.220Z,66.44
2022-10-10T09:29:25.132Z,60.47
2022-10-10T09:32:00.000Z,56.72
2022-10-10T09:34:36.858Z,52.79
2022-10-10T09:37:16.409Z,52.63
2022-10-10T09:39:59.726Z,47.47
2022-10-10T09:42:35.324Z,47.28
2022-10-10T09:45:05.539Z,47.66
2022-10-10T09:47:35.888Z,46.81
2022-10-10T09:50:05.510Z,47.19
2022-10-10T09:52:35.224Z,46.89
2022-10-10T09:55:16.118Z,45.32
2022-10-10T09:57:44.848Z,46.47
2022-10-10T10:00:37.914Z,41.40
2022-10-10T10:03:16.555Z,43.26
2022-10-10T10:05:54.447Z,46.01
2022-10-10T10:08:29.269Z,44.27
2022-10-10T10:11:02.145Z,46.42
2022-10-10T10:13:34.043Z,46.57
2022-10-10T10:16:08.481Z,45.27
2022-10-10T10:18:43.108Z,44.03
2022-10-10T10:21:23.778Z,41.29
2022-10-10T10:23:55.498Z,46.87
2022-10-10T10:26:27.637Z,47.29
2022-10-10T10:28:59.141Z,46.06
2022-10-10T10:31:53.004Z,39.90
2022-10-10T10:34:47.379Z,37.84
2022-10-10T10:37:22.583Z,41.23
2022-10-10T10:40:29.278Z,36.28
2022-10-10T10:43:34.170Z,33.49
2022-10-10T10:46:12.005Z,36.06
2022-10-10T10:48:46.843Z,36.08
2022-10-10T10:51:44.401Z,34.00
2022-10-10T10:54:40.405Z,34.35
2022-10-10T10:57:32.917Z,35.55
2022-10-10T11:00:22.246Z,34.56
2022-10-10T11:03:35.170Z,33.17
2022-10-10T11:06:14.863Z,32.70
2022-10-10T11:08:59.230Z,32.96
2022-10-10T11:11:47.992Z,31.45
2022-10-10T11:14:29.846Z,32.30
2022-10-10T11:17:05.010Z,32.97
2022-10-10T11:19:38.895Z,33.56
2022-10-10T11:22:14.992Z,34.01
2022-10-10T11:24:52.668Z,30.57
2022-10-10T11:27:27.836Z,33.51
2022-10-10T11:30:04.767Z,32.95
2022-10-10T11:32:40.969Z,33.49
2022-10-10T11:35:20.029Z,31.01
2022-10-10T11:38:07.099Z,32.25
2022-10-10T11:40:54.702Z,28.93
2022-10-10T11:43:33.301Z,30.80
2022-10-10T11:46:10.264Z,30.87
2022-10-10T11:48:49.153Z,30.87
2022-10-10T11:51:37.329Z,30.07
2022-10-10T11:54:14.090Z,32.33
2022-10-10T11:56:52.446Z,31.83
2022-10-10T11:59:32.127Z,32.42
2022-10-10T12:02:11.339Z,27.95
2022-10-10T12:04:41.222Z,32.18
2022-10-10T12:07:18.359Z,30.53
2022-10-10T12:09:54.749Z,31.35
2022-10-10T12:12:34.482Z,30.53
2022-10-10T12:15:06.831Z,32.43
2022-10-10T12:17:45.293Z,30.34
2022-10-10T12:20:34.188Z,28.51
2022-10-10T12:23:24.440Z,29.25
2022-10-10T12:25:53.267Z,32.77
2022-10-10T12:28:30.550Z,30.83
2022-10-10T12:31:35.645Z,29.87
2022-10-10T12:34:40.061Z,29.80
2022-10-10T12:37:22.918Z,31.63
2022-10-10T12:40:30.687Z,29.10
2022-10-10T12:43:08.962Z,30.85
2022-10-10T12:46:26.320Z,28.24
2022-10-10T12:49:21.099Z,30.34
2022-10-10T12:52:05.373Z,29.27
2022-10-10T12:54:41.080Z,30.77
2022-10-10T12:57:18.137Z,30.82
2022-10-10T12:59:47.668Z,31.56
2022-10-10T13:02:21.725Z,30.58
2022-10-10T13:04:54.758Z,31.33
2022-10-10T13:07:24.663Z,31.32
2022-10-10T13:09:56.906Z,31.29
2022-10-10T13:12:28.144Z,31.33
2022-10-10T13:14:59.571Z,31.25
2022-10-10T13:17:30.882Z,31.53
2022-10-10T13:20:02.145Z,31.36
2022-10-10T13:22:32.928Z,31.58
2022-10-10T13:25:11.688Z,32.04
2022-10-10T13:27:41.828Z,31.91
2022-10-10T13:30:26.452Z,29.30
2022-10-10T13:32:57.522Z,32.34
2022-10-10T13:35:29.166Z,31.87
2022-10-10T13:38:01.215Z,32.55
2022-10-10T13:40:30.888Z,33.23
2022-10-10T13:43:00.113Z,33.15
2022-10-10T13:45:37.244Z,31.71
2022-10-10T13:48:18.689Z,31.93
2022-10-10T13:51:14.940Z,32.31
2022-10-10T13:53:48.998Z,38.28
2022-10-10T13:56:24.758Z,41.63
2022-10-10T13:58:55.951Z,46.56
2022-10-10T14:01:34.723Z,45.46
2022-10-10T14:04:15.834Z,46.96
2022-10-10T14:06:57.830Z,42.83
2022-10-10T14:09:32.089Z,42.89
2022-10-10T14:12:03.163Z,44.15
2022-10-10T14:14:36.331Z,43.77
2022-10-10T14:17:06.825Z,45.27
2022-10-10T14:19:35.566Z,47.38
2022-10-10T14:22:05.659Z,50.99
2022-10-10T14:24:34.887Z,54.33
2022-10-10T14:27:13.554Z,56.04
2022-10-10T14:29:42.387Z,58.90
2022-10-10T14:32:11.675Z,60.43
2022-10-10T14:34:40.851Z,61.23
2022-10-10T14:37:18.179Z,60.96
2022-10-10T14:39:47.750Z,62.14
2022-10-10T14:42:22.729Z,62.47
2022-10-10T14:44:51.663Z,62.42
2022-10-10T14:47:22.024Z,61.11
2022-10-10T14:49:52.770Z,61.39
2022-10-10T14:52:23.316Z,60.77
2022-10-10T14:54:51.831Z,60.80
2022-10-10T14:57:22.587Z,60.90
2022-10-10T14:59:51.328Z,61.27
2022-10-10T15:02:21.942Z,61.69
2022-10-10T15:04:53.170Z,62.20
2022-10-10T15:07:23.687Z,62.68
2022-10-10T15:10:19.228Z,64.09
2022-10-10T15:12:43.442Z,64.21
2022-10-10T15:15:13.487Z,63.85
2022-10-10T15:17:42.836Z,64.73
2022-10-10T15:20:13.968Z,65.70
2022-10-10T15:22:48.118Z,66.71
2022-10-10T15:25:19.510Z,67.35
2022-10-10T15:27:51.128Z,67.91
2022-10-10T15:30:19.801Z,69.52
2022-10-10T15:32:51.592Z,69.73
2022-10-10T15:35:23.743Z,70.32
2022-10-10T15:37:55.957Z,71.58
2022-10-10T15:40:25.508Z,72.99
2022-10-10T15:42:54.604Z,73.34
2022-10-10T15:45:51.052Z,74.14
2022-10-10T15:48:12.267Z,75.35
2022-10-10T15:50:43.603Z,76.16
2022-10-10T15:53:14.453Z,76.88
2022-10-10T15:55:44.600Z,77.47
2022-10-10T15:58:13.440Z,77.99
2022-10-10T16:00:43.949Z,78.86
2022-10-10T16:03:18.635Z,79.70
2022-10-10T16:05:48.810Z,79.77
2022-10-10T16:08:19.661Z,80.52
2022-10-10T16:10:48.709Z,80.54
2022-10-10T16:13:17.707Z,80.72
2022-10-10T16:15:46.399Z,81.31
2022-10-10T16:18:15.039Z,81.40
2022-10-10T16:20:44.041Z,81.52
2022-10-10T16:23:12.742Z,81.72
2022-10-10T16:25:43.332Z,82.52
2022-10-10T16:28:11.923Z,83.13
2022-10-10T16:30:41.147Z,83.40
2022-10-10T16:33:09.684Z,84.20
2022-10-10T16:35:38.974Z,84.63
2022-10-10T16:38:07.670Z,85.42
2022-10-10T16:40:37.648Z,86.21
2022-10-10T16:43:07.888Z,86.58
2022-10-10T16:45:41.736Z,87.65
2022-10-10T16:48:10.361Z,87.42
2022-10-10T16:50:42.713Z,88.62
2022-10-10T16:53:12.427Z,88.88
2022-10-10T16:55:43.445Z,89.34
2022-10-10T16:58:13.670Z,89.67
2022-10-10T17:00:44.088Z,89.39
2022-10-10T17:03:13.180Z,89.76
2022-10-10T17:05:46.988Z,90.11
2022-10-10T17:08:18.847Z,90.37
2022-10-10T17:10:47.531Z,89.82
2022-10-10T17:13:17.947Z,90.91
2022-10-10T17:15:47.062Z,90.19
2022-10-10T17:18:17.598Z,90.66
2022-10-10T17:20:46.832Z,90.59
2022-10-10T17:23:17.289Z,90.97
2022-10-10T17:25:47.919Z,90.94
2022-10-10T17:28:18.607Z,91.71
2022-10-10T17:30:50.322Z,91.17
2022-10-10T17:33:20.962Z,91.62
2022-10-10T17:35:51.055Z,92.19
2022-10-10T17:38:38.451Z,93.28
2022-10-10T17:41:11.292Z,93.02
2022-10-10T17:43:45.405Z,96.33
2022-10-10T17:46:36.874Z,92.71
2022-10-10T17:49:07.001Z,92.79
2022-10-10T17:51:37.443Z,93.24
2022-10-10T17:54:10.309Z,93.75
2022-10-10T17:56:40.807Z,93.59
2022-10-10T17:59:11.177Z,93.62
2022-10-10T18:01:41.433Z,94.30
2022-10-10T18:04:10.279Z,94.88
2022-10-10T18:06:39.628Z,95.49
2022-10-10T18:09:08.653Z,95.39
2022-10-10T18:11:37.628Z,95.24
2022-10-10T18:14:06.851Z,95.43
2022-10-10T18:16:37.441Z,96.00
2022-10-10T18:19:07.776Z,96.51
2022-10-10T18:21:37.113Z,96.24
2022-10-10T18:24:06.264Z,96.59
2022-10-10T18:26:35.225Z,96.89
2022-10-10T18:29:06.650Z,97.07
2022-10-10T18:31:38.527Z,97.29
2022-10-10T18:34:08.818Z,97.27
2022-10-10T18:36:38.879Z,96.95
2022-10-10T18:39:09.737Z,97.79
2022-10-10T18:41:39.321Z,97.61
2022-10-10T18:44:10.306Z,97.98
2022-10-10T18:46:41.141Z,98.42
2022-10-10T18:49:11.973Z,97.85
2022-10-10T18:51:43.322Z,97.99
2022-10-10T18:54:14.931Z,98.37
2022-10-10T18:56:45.192Z,98.13
2022-10-10T18:59:15.961Z,98.49
2022-10-10T19:01:47.214Z,98.84
2022-10-10T19:04:17.521Z,98.85
2022-10-10T19:06:46.493Z,98.57
2022-10-10T19:09:18.421Z,98.63
2022-10-10T19:11:50.186Z,99.20
2022-10-10T19:14:19.743Z,99.39
2022-10-10T19:16:53.041Z,99.92
2022-10-10T19:19:21.855Z,99.93
2022-10-10T19:21:51.267Z,99.81
2022-10-10T19:24:21.622Z,100.00
2022-10-10T19:26:53.598Z,100.00
2022-10-10T19:29:25.131Z,100.00
2022-10-10T19:31:56.348Z,100.00
2022-10-10T19:34:25.844Z,100.00
2022-10-10T19:36:57.774Z,100.00
2022-10-10T19:39:26.839Z,100.00
2022-10-10T19:41:55.903Z,100.00
2022-10-10T19:44:24.660Z,100.00
2022-10-10T19:46:56.465Z,100.00
2022-10-10T19:49:25.376Z,100.00
2022-10-10T19:51:54.702Z,100.00
2022-10-10T19:54:23.498Z,100.00
2022-10-10T19:56:52.829Z,100.00
2022-10-10T19:59:21.577Z,100.00
2022-10-10T20:01:53.467Z,100.00
2022-10-10T20:04:23.839Z,100.00
2022-10-10T20:06:52.635Z,100.00
2022-10-10T20:09:21.591Z,100.00
2022-10-10T20:11:50.352Z,100.00
2022-10-10T20:14:19.057Z,100.00
2022-10-10T20:16:47.880Z,100.00
2022-10-10T20:19:16.501Z,100.00
2022-10-10T20:21:46.984Z,100.00
2022-10-10T20:24:16.058Z,100.00
2022-10-10T20:26:44.958Z,100.00
2022-10-10T20:29:15.483Z,100.00
2022-10-10T20:31:44.347Z,100.00
2022-10-10T20:34:13.898Z,100.00
2022-10-10T20:36:43.041Z,100.00
2022-10-10T20:39:15.264Z,100.00
2022-10-10T20:41:44.255Z,100.00
2022-10-10T20:44:14.777Z,100.00
2022-10-10T20:46:45.921Z,100.00
2022-10-10T20:49:16.991Z,100.00
2022-10-10T20:51:48.920Z,100.00
2022-10-10T20:54:20.571Z,100.00
2022-10-10T20:56:50.018Z,100.00
2022-10-10T20:59:19.104Z,100.00
2022-10-10T21:01:47.953Z,100.00
2022-10-10T21:04:17.034Z,100.00
2022-10-10T21:06:46.711Z,100.00
2022-10-10T21:09:16.740Z,100.00
2022-10-10T21:11:50.568Z,100.00
2022-10-10T21:14:19.800Z,100.00
2022-10-10T21:16:50.943Z,100.00
2022-10-10T21:19:20.449Z,100.00
2022-10-10T21:21:49.258Z,100.00
2022-10-10T21:24:18.577Z,100.00
2022-10-10T21:26:50.505Z,100.00
2022-10-10T21:29:23.069Z,100.00
2022-10-10T21:31:51.941Z,100.00
2022-10-10T21:34:20.775Z,100.00
2022-10-10T21:36:50.177Z,100.00
2022-10-10T21:39:19.209Z,100.00
2022-10-10T21:41:49.407Z,100.00
2022-10-10T21:44:18.357Z,100.00
2022-10-10T21:46:46.971Z,100.00
2022-10-10T21:49:15.705Z,100.00
2022-10-10T21:51:46.810Z,100.00
2022-10-10T21:54:16.041Z,100.00
2022-10-10T21:56:45.455Z,100.00
2022-10-10T21:59:17.633Z,100.00
2022-10-10T22:01:46.315Z,100.00
2022-10-10T22:04:15.180Z,100.00
2022-10-10T22:06:44.844Z,100.00
2022-10-10T22:09:13.575Z,100.00
2022-10-10T22:11:42.574Z,100.00
2022-10-10T22:14:11.618Z,100.00
2022-10-10T22:16:41.781Z,100.00
2022-10-10T22:19:11.090Z,100.00
2022-10-10T22:21:40.125Z,100.00
2022-10-10T22:24:09.814Z,100.00
2022-10-10T22:26:38.780Z,100.00
2022-10-10T22:29:07.431Z,100.00
2022-10-10T22:31:37.949Z,100.00
2022-10-10T22:34:09.720Z,100.00
2022-10-10T22:36:38.287Z,100.00
2022-10-10T22:39:09.046Z,100.00
2022-10-10T22:41:38.239Z,100.00
2022-10-10T22:44:06.973Z,100.00
2022-10-10T22:46:35.660Z,100.00
2022-10-10T22:49:04.657Z,100.00
2022-10-10T22:51:34.732Z,100.00
2022-10-10T22:54:03.437Z,100.00
2022-10-10T22:56:32.110Z,100.00
2022-10-10T22:59:00.674Z,100.00
2022-10-10T23:01:29.452Z,100.00
2022-10-10T23:04:00.752Z,100.00
2022-10-10T23:06:29.376Z,100.00
2022-10-10T23:08:59.501Z,100.00
2022-10-10T23:11:28.439Z,100.00
2022-10-10T23:13:57.380Z,100.00
2022-10-10T23:16:25.994Z,100.00
2022-10-10T23:18:54.692Z,100.00
2022-10-10T23:21:23.274Z,100.00
2022-10-10T23:23:52.539Z,100.00
2022-10-10T23:26:22.554Z,100.00
2022-10-10T23:28:52.081Z,100.00
2022-10-10T23:31:20.752Z,100.00
2022-10-10T23:33:49.318Z,100.00
2022-10-10T23:36:18.593Z,100.00
2022-10-10T23:38:47.757Z,100.00
2022-10-10T23:41:16.361Z,100.00
2022-10-10T23:43:46.807Z,100.00
2022-10-10T23:46:16.062Z,100.00
2022-10-10T23:48:44.660Z,100.00
2022-10-10T23:51:13.427Z,100.00
2022-10-10T23:53:41.854Z,100.00
2022-10-10T23:56:10.434Z,100.00
2022-10-10T23:58:39.042Z,100.00
